Time;durP1;ratioP1;P1;durP2;ratioP2;P2;SDS_P1;SDS_P2;PMS_P1;PMS_P2;Temp;Humidity;BMP_temperature;BMP_pressure;BME280_temperature;BME280_humidity;BME280_pressure;Samples;Min_cycle;Max_cycle;Signal;HPM_P1;HPM_P2
2022/01/07 00:01:00;;;;;;;343.45;139.65;;;2.60;99.90;;;;;;5098122;28;20044;-49
2022/01/07 00:03:26;;;;;;;450.90;177.88;;;2.60;99.90;;;;;;5098017;28;20379;-49
2022/01/07 00:05:52;;;;;;;459.70;174.55;;;2.60;99.90;;;;;;5097894;28;20032;-49
2022/01/07 00:08:18;;;;;;;365.48;146.68;;;2.60;99.90;;;;;;5110156;28;20070;-49
2022/01/07 00:10:44;;;;;;;348.08;141.25;;;2.70;99.90;;;;;;5118236;28;20412;-49
2022/01/07 00:13:11;;;;;;;307.52;129.82;;;2.60;99.90;;;;;;5118245;28;20035;-49
2022/01/07 00:15:37;;;;;;;298.83;128.52;;;2.60;99.90;;;;;;5118223;28;20035;-49
2022/01/07 00:18:03;;;;;;;213.63;101.18;;;2.70;99.90;;;;;;5118212;28;20431;-49
2022/01/07 00:20:29;;;;;;;198.13;90.80;;;2.70;99.90;;;;;;5118141;28;20126;-49
2022/01/07 00:22:56;;;;;;;198.02;91.45;;;2.60;99.90;;;;;;5118245;28;20108;-49
2022/01/07 00:25:22;;;;;;;343.75;128.73;;;2.60;99.90;;;;;;5118048;28;20573;-49
2022/01/07 00:27:49;;;;;;;281.85;114.00;;;2.50;99.90;;;;;;5118074;28;20035;-49
2022/01/07 00:30:17;;;;;;;259.67;106.78;;;2.50;99.90;;;;;;5118076;28;20032;-49
2022/01/07 00:32:43;;;;;;;240.27;101.47;;;2.50;99.90;;;;;;5117944;28;20028;-49
2022/01/07 00:35:10;;;;;;;186.02;85.22;;;2.60;99.90;;;;;;5118027;28;20107;-49
2022/01/07 00:37:36;;;;;;;161.05;74.15;;;2.40;99.90;;;;;;5117885;28;20123;-49
2022/01/07 00:40:08;;;;;;;163.18;76.63;;;2.50;99.90;;;;;;5117697;28;20039;-49
2022/01/07 00:42:34;;;;;;;166.77;78.25;;;2.40;99.90;;;;;;5117445;28;20050;-49
2022/01/07 00:45:00;;;;;;;191.20;84.53;;;2.30;99.90;;;;;;5117684;28;20662;-49
2022/01/07 00:47:26;;;;;;;164.65;77.80;;;2.40;99.90;;;;;;5117519;28;20036;-49
2022/01/07 00:49:52;;;;;;;177.20;79.90;;;2.40;99.90;;;;;;5117499;28;20110;-49
2022/01/07 00:52:19;;;;;;;155.40;73.38;;;2.40;99.90;;;;;;5117615;28;20055;-49
2022/01/07 00:54:44;;;;;;;166.55;77.43;;;2.30;99.90;;;;;;5117777;28;20070;-49
2022/01/07 00:57:10;;;;;;;179.93;83.03;;;2.40;99.90;;;;;;5117462;28;20036;-49
2022/01/07 00:59:37;;;;;;;207.77;94.78;;;2.30;99.90;;;;;;5117417;28;20044;-49
2022/01/07 01:02:03;;;;;;;234.85;106.60;;;2.30;99.90;;;;;;5117391;28;20032;-49
2022/01/07 01:04:29;;;;;;;231.23;107.72;;;2.30;99.90;;;;;;5117375;28;20046;-49
2022/01/07 01:06:55;;;;;;;216.60;93.18;;;2.20;99.90;;;;;;5116953;28;20040;-49
2022/01/07 01:09:21;;;;;;;207.82;90.40;;;2.20;99.90;;;;;;5117268;28;20118;-49
2022/01/07 01:11:47;;;;;;;204.13;91.25;;;2.10;99.90;;;;;;5117065;28;20043;-49
2022/01/07 01:14:13;;;;;;;200.65;90.20;;;2.20;99.90;;;;;;5097634;28;20501;-49
2022/01/07 01:16:40;;;;;;;228.35;102.93;;;2.30;99.90;;;;;;5096700;28;20046;-48
2022/01/07 01:19:06;;;;;;;233.27;104.63;;;2.20;99.90;;;;;;5096255;28;20089;-49
2022/01/07 01:21:34;;;;;;;219.52;101.20;;;2.20;99.90;;;;;;5096439;28;20505;-48
2022/01/07 01:24:00;;;;;;;331.27;132.73;;;2.20;99.90;;;;;;5096342;28;20075;-49
2022/01/07 01:26:26;;;;;;;336.90;141.70;;;2.20;99.90;;;;;;5096230;28;20048;-49
2022/01/07 01:28:52;;;;;;;297.17;124.68;;;2.20;99.90;;;;;;5096301;28;20119;-49
2022/01/07 01:31:18;;;;;;;238.75;105.13;;;2.20;99.90;;;;;;5097228;28;20375;-49
2022/01/07 01:33:46;;;;;;;258.10;108.00;;;2.10;99.90;;;;;;5116775;28;20035;-49
2022/01/07 01:36:14;;;;;;;222.02;98.15;;;2.10;99.90;;;;;;5116577;28;20122;-49
2022/01/07 01:38:41;;;;;;;245.65;107.10;;;2.20;99.90;;;;;;5116668;28;20053;-49
2022/01/07 01:41:08;;;;;;;245.07;109.13;;;2.20;99.90;;;;;;5116668;28;20036;-48
2022/01/07 01:43:35;;;;;;;213.93;95.93;;;2.20;99.90;;;;;;5116353;28;20126;-49
2022/01/07 01:46:01;;;;;;;208.98;94.35;;;2.10;99.90;;;;;;5116382;28;20032;-49
2022/01/07 01:48:27;;;;;;;209.77;93.50;;;2.20;99.90;;;;;;5116494;28;20080;-49
2022/01/07 01:50:56;;;;;;;205.15;93.18;;;2.20;99.90;;;;;;5116305;28;20040;-49
2022/01/07 01:53:24;;;;;;;203.43;92.72;;;2.20;99.90;;;;;;5115630;28;20036;-49
2022/01/07 01:55:51;;;;;;;195.57;92.45;;;2.00;99.90;;;;;;5116167;28;20036;-49
2022/01/07 01:58:18;;;;;;;177.52;83.90;;;1.90;99.90;;;;;;5116566;28;20035;-49
2022/01/07 02:00:44;;;;;;;203.25;89.68;;;2.00;99.90;;;;;;5116115;28;20039;-49
2022/01/07 02:03:10;;;;;;;216.20;86.35;;;1.90;99.90;;;;;;5116200;28;20080;-49
2022/01/07 02:05:36;;;;;;;191.57;89.90;;;1.90;99.90;;;;;;5116009;28;20056;-49
2022/01/07 02:08:03;;;;;;;209.00;93.53;;;1.90;99.90;;;;;;5125597;27;20130;-49
2022/01/07 02:10:29;;;;;;;198.40;90.82;;;1.80;99.90;;;;;;5144428;27;20042;-49
2022/01/07 02:12:56;;;;;;;194.63;86.55;;;1.80;99.90;;;;;;5147364;27;20035;-49
2022/01/07 02:15:22;;;;;;;181.13;84.57;;;1.80;99.90;;;;;;5106028;27;20035;-50
2022/01/07 02:17:50;;;;;;;206.88;91.53;;;1.80;99.90;;;;;;5103845;27;20179;-49
2022/01/07 02:20:19;;;;;;;204.60;92.05;;;1.80;99.90;;;;;;5116908;27;20047;-49
2022/01/07 02:22:45;;;;;;;232.20;99.40;;;1.80;99.90;;;;;;5124757;27;20052;-49
2022/01/07 02:25:12;;;;;;;229.80;95.47;;;1.90;99.90;;;;;;5107969;28;20078;-48
2022/01/07 02:27:41;;;;;;;240.07;102.03;;;1.90;99.90;;;;;;5115641;28;20401;-49
2022/01/07 02:30:10;;;;;;;232.93;100.78;;;1.90;99.90;;;;;;5115588;28;20036;-48
2022/01/07 02:32:37;;;;;;;301.08;118.45;;;1.80;99.90;;;;;;5115336;28;20035;-49
2022/01/07 02:35:05;;;;;;;303.75;119.07;;;1.80;99.90;;;;;;5115478;28;20116;-48
2022/01/07 02:37:34;;;;;;;247.60;103.30;;;1.80;99.90;;;;;;5115454;28;20061;-49
2022/01/07 02:40:05;;;;;;;262.88;106.60;;;1.70;99.90;;;;;;5115436;28;20034;-48
2022/01/07 02:42:31;;;;;;;259.83;108.05;;;1.70;99.90;;;;;;5115390;28;20024;-48
2022/01/07 02:44:57;;;;;;;268.30;108.10;;;1.70;99.90;;;;;;5115127;28;20035;-48
2022/01/07 02:47:31;;;;;;;297.70;109.38;;;1.60;99.90;;;;;;5115452;28;20097;-49
2022/01/07 02:50:04;;;;;;;328.58;120.68;;;1.60;99.90;;;;;;5115243;28;20032;-49
2022/01/07 02:52:30;;;;;;;262.45;106.28;;;1.60;99.90;;;;;;5115199;28;20568;-48
2022/01/07 02:54:56;;;;;;;321.77;125.18;;;1.60;99.90;;;;;;5115293;28;20056;-48
2022/01/07 02:57:22;;;;;;;271.90;111.75;;;1.60;99.90;;;;;;5115069;28;20035;-49
2022/01/07 02:59:49;;;;;;;241.07;105.72;;;1.50;99.90;;;;;;5115042;28;20031;-48
2022/01/07 03:02:15;;;;;;;254.05;110.03;;;1.50;99.90;;;;;;5114450;28;20519;-49
2022/01/07 03:04:41;;;;;;;227.88;95.60;;;1.50;99.90;;;;;;5114257;28;20052;-49
2022/01/07 03:07:07;;;;;;;233.23;93.07;;;1.50;99.90;;;;;;5114866;28;20040;-49
2022/01/07 03:09:33;;;;;;;249.32;94.32;;;1.50;99.90;;;;;;5114895;28;20317;-49
2022/01/07 03:12:00;;;;;;;233.00;93.50;;;1.50;99.90;;;;;;5114452;28;20066;-49
2022/01/07 03:14:27;;;;;;;226.65;87.82;;;1.50;99.90;;;;;;5114986;28;20385;-49
2022/01/07 03:16:53;;;;;;;240.43;95.55;;;1.50;99.90;;;;;;5114996;28;20152;-48
2022/01/07 03:19:19;;;;;;;296.73;95.53;;;1.50;99.90;;;;;;5114754;28;20500;-48
2022/01/07 03:21:51;;;;;;;419.85;117.20;;;1.40;99.90;;;;;;5115008;28;20040;-48
2022/01/07 03:24:17;;;;;;;250.70;93.38;;;1.40;99.90;;;;;;5114730;28;20093;-49
2022/01/07 03:26:44;;;;;;;336.80;99.70;;;1.50;99.90;;;;;;5114540;28;20043;-48
2022/01/07 03:29:10;;;;;;;281.85;89.78;;;1.50;99.90;;;;;;5114869;28;20032;-48
2022/01/07 03:31:36;;;;;;;211.88;84.35;;;1.40;99.90;;;;;;5114771;28;20118;-49
2022/01/07 03:34:09;;;;;;;289.58;94.28;;;1.40;99.90;;;;;;5114599;28;20469;-48
2022/01/07 03:36:35;;;;;;;658.67;123.80;;;1.40;99.90;;;;;;5114589;28;20039;-48
2022/01/07 03:39:03;;;;;;;315.23;95.55;;;1.30;99.90;;;;;;5114672;28;20038;-49
2022/01/07 03:41:29;;;;;;;296.20;91.93;;;1.20;99.90;;;;;;5114719;28;20040;-49
2022/01/07 03:43:55;;;;;;;222.15;84.28;;;1.20;99.90;;;;;;5114642;28;20091;-49
2022/01/07 03:46:21;;;;;;;452.50;101.78;;;1.20;99.90;;;;;;5114677;28;20313;-49
2022/01/07 03:48:47;;;;;;;198.18;78.25;;;1.20;99.90;;;;;;5114640;28;20319;-48
2022/01/07 03:51:13;;;;;;;284.58;92.95;;;1.10;99.90;;;;;;5114694;28;20034;-49
2022/01/07 03:53:39;;;;;;;288.33;92.07;;;1.10;99.90;;;;;;5114636;28;20117;-49
2022/01/07 03:56:05;;;;;;;299.58;91.32;;;1.10;99.90;;;;;;5114591;28;20040;-48
2022/01/07 03:58:31;;;;;;;359.23;94.63;;;1.10;99.90;;;;;;5114548;28;20035;-48
2022/01/07 04:00:57;;;;;;;341.85;95.07;;;1.10;99.90;;;;;;5114959;28;20093;-48
2022/01/07 04:03:23;;;;;;;239.77;85.40;;;1.00;99.90;;;;;;5114684;28;20114;-49
2022/01/07 04:05:49;;;;;;;301.08;88.47;;;1.00;99.90;;;;;;5114434;28;20059;-49
2022/01/07 04:08:15;;;;;;;273.30;89.82;;;1.00;99.90;;;;;;5114314;28;20035;-49
2022/01/07 04:10:41;;;;;;;448.20;104.57;;;1.00;99.90;;;;;;5114582;28;20032;-49
2022/01/07 04:13:10;;;;;;;343.63;93.15;;;0.90;99.90;;;;;;5114313;28;20386;-48
2022/01/07 04:15:39;;;;;;;362.52;101.57;;;0.90;99.90;;;;;;5114295;28;20063;-49
2022/01/07 04:18:06;;;;;;;301.58;92.20;;;0.90;99.90;;;;;;5118168;28;20135;-48
2022/01/07 04:20:34;;;;;;;363.38;94.70;;;0.90;99.90;;;;;;5118138;28;20493;-49
2022/01/07 04:23:01;;;;;;;368.92;97.07;;;0.90;99.90;;;;;;5118249;28;20065;-48
2022/01/07 04:25:28;;;;;;;340.77;93.05;;;0.90;99.90;;;;;;5117874;28;20504;-49
2022/01/07 04:27:58;;;;;;;313.40;91.75;;;0.90;99.90;;;;;;5118085;28;20032;-49
2022/01/07 04:30:36;;;;;;;336.23;92.65;;;0.80;99.90;;;;;;5117899;28;20124;-49
2022/01/07 04:33:04;;;;;;;294.00;88.15;;;0.80;99.90;;;;;;5117813;28;20047;-48
2022/01/07 04:35:34;;;;;;;338.58;89.10;;;0.90;99.90;;;;;;5117709;28;20103;-48
2022/01/07 04:38:01;;;;;;;348.23;91.47;;;0.90;99.90;;;;;;5117965;28;20114;-48
2022/01/07 04:40:27;;;;;;;365.63;96.35;;;0.80;99.90;;;;;;5117839;28;20035;-48
2022/01/07 04:42:53;;;;;;;364.38;94.88;;;0.80;99.90;;;;;;5117719;28;20538;-49
2022/01/07 04:45:20;;;;;;;513.15;106.30;;;0.70;99.90;;;;;;5117478;28;20039;-48
2022/01/07 04:47:46;;;;;;;432.02;98.90;;;0.60;99.90;;;;;;5117544;28;20103;-49
2022/01/07 04:50:18;;;;;;;334.63;86.05;;;0.60;99.90;;;;;;5117755;28;20031;-48
2022/01/07 04:52:45;;;;;;;321.75;84.32;;;0.50;99.90;;;;;;5117761;28;20043;-49
2022/01/07 04:55:20;;;;;;;338.25;90.78;;;0.60;99.90;;;;;;5117642;28;20028;-48
2022/01/07 04:57:47;;;;;;;264.30;84.15;;;0.60;99.90;;;;;;5117417;28;20100;-48
2022/01/07 05:00:15;;;;;;;265.00;79.13;;;0.60;99.90;;;;;;5117502;28;20035;-48
2022/01/07 05:02:41;;;;;;;317.20;83.22;;;0.50;99.90;;;;;;5117472;28;20035;-48
2022/01/07 05:05:08;;;;;;;368.17;86.93;;;0.50;99.90;;;;;;5117151;28;20485;-49
2022/01/07 05:07:36;;;;;;;233.68;78.43;;;0.50;99.90;;;;;;5117341;28;20088;-48
2022/01/07 05:10:11;;;;;;;391.42;93.00;;;0.40;99.90;;;;;;5117229;28;20088;-48
2022/01/07 05:12:38;;;;;;;240.45;80.20;;;0.50;99.90;;;;;;5117104;28;20034;-48
2022/01/07 05:15:05;;;;;;;206.48;71.50;;;0.60;99.90;;;;;;5117093;28;20044;-49
2022/01/07 05:17:42;;;;;;;316.45;82.38;;;0.50;99.90;;;;;;5117096;28;20023;-48
2022/01/07 05:20:16;;;;;;;260.38;75.82;;;0.50;99.90;;;;;;5137387;27;20114;-48
2022/01/07 05:22:44;;;;;;;281.85;79.40;;;0.50;99.90;;;;;;5137573;27;20212;-48
2022/01/07 05:25:12;;;;;;;229.15;73.50;;;0.40;99.90;;;;;;5137321;27;20496;-48
2022/01/07 05:27:42;;;;;;;291.02;114.47;;;0.40;99.90;;;;;;5136508;27;20027;-48
2022/01/07 05:30:13;;;;;;;297.73;123.47;;;0.60;99.90;;;;;;5137443;27;20034;-48
2022/01/07 05:32:40;;;;;;;217.93;84.82;;;0.50;99.90;;;;;;5132447;27;20458;-48
2022/01/07 05:35:07;;;;;;;207.93;83.85;;;0.60;99.90;;;;;;5118699;27;20035;-48
2022/01/07 05:37:34;;;;;;;198.55;75.40;;;0.60;99.90;;;;;;5137365;27;20551;-48
2022/01/07 05:40:00;;;;;;;249.27;82.00;;;0.40;99.90;;;;;;5137139;27;20051;-48
2022/01/07 05:42:26;;;;;;;259.13;80.95;;;0.40;99.90;;;;;;5137211;27;20102;-48
2022/01/07 05:44:56;;;;;;;289.05;77.65;;;0.20;99.90;;;;;;5136962;27;20370;-48
2022/01/07 05:47:22;;;;;;;329.85;87.72;;;0.30;99.90;;;;;;5137050;27;20032;-48
2022/01/07 05:49:48;;;;;;;199.90;78.32;;;0.20;99.90;;;;;;5136787;27;20058;-49
2022/01/07 05:52:14;;;;;;;206.55;74.30;;;0.20;99.90;;;;;;5136911;27;20059;-48
2022/01/07 05:54:41;;;;;;;233.38;81.25;;;0.10;99.90;;;;;;5136974;27;20035;-48
2022/01/07 05:57:07;;;;;;;171.55;67.93;;;0.00;99.90;;;;;;5136843;27;20532;-48
2022/01/07 05:59:34;;;;;;;193.98;72.28;;;0.00;99.90;;;;;;5136312;27;20549;-48
2022/01/07 06:02:00;;;;;;;218.35;78.10;;;0.00;99.90;;;;;;5136753;27;20378;-48
2022/01/07 06:04:27;;;;;;;483.33;164.70;;;-0.10;99.90;;;;;;5136584;27;20404;-48
2022/01/07 06:06:53;;;;;;;508.75;166.98;;;-0.20;99.90;;;;;;5136617;27;20035;-49
2022/01/07 06:09:19;;;;;;;283.85;99.03;;;-0.30;99.90;;;;;;5136471;27;20034;-48
2022/01/07 06:11:48;;;;;;;225.80;83.68;;;-0.30;99.90;;;;;;5136612;27;20027;-48
2022/01/07 06:14:15;;;;;;;251.00;96.90;;;-0.30;99.90;;;;;;5116643;27;20063;-48
2022/01/07 06:16:41;;;;;;;301.30;99.18;;;-0.10;99.90;;;;;;5113940;28;20044;-49
2022/01/07 06:19:07;;;;;;;250.95;87.03;;;-0.20;99.90;;;;;;5104733;28;20039;-49
2022/01/07 06:21:33;;;;;;;378.90;126.32;;;-0.20;99.90;;;;;;5105710;28;20540;-49
2022/01/07 06:24:00;;;;;;;208.60;84.13;;;-0.20;99.90;;;;;;5116135;28;20050;-48
2022/01/07 06:26:31;;;;;;;182.13;73.47;;;-0.30;99.90;;;;;;5114952;28;20036;-49
2022/01/07 06:28:58;;;;;;;329.55;91.57;;;-0.20;99.90;;;;;;5111143;28;20042;-49
2022/01/07 06:31:24;;;;;;;217.65;91.22;;;-0.30;99.90;;;;;;5094583;28;20481;-49
2022/01/07 06:33:50;;;;;;;205.57;86.22;;;-0.30;99.90;;;;;;5123014;27;20035;-49
2022/01/07 06:36:16;;;;;;;236.98;91.00;;;-0.20;99.90;;;;;;5136389;27;20388;-49
2022/01/07 06:38:43;;;;;;;329.85;112.85;;;-0.30;99.90;;;;;;5136057;27;20031;-49
2022/01/07 06:41:09;;;;;;;192.48;84.75;;;-0.50;99.90;;;;;;5136501;27;20039;-49
2022/01/07 06:43:44;;;;;;;189.20;77.65;;;-0.60;99.90;;;;;;5102902;28;20044;-49
2022/01/07 06:46:11;;;;;;;202.38;79.90;;;-0.60;99.90;;;;;;5110665;28;20045;-49
2022/01/07 06:48:38;;;;;;;181.23;74.28;;;-0.40;99.90;;;;;;5112394;28;20024;-49
2022/01/07 06:51:04;;;;;;;191.95;79.47;;;-0.50;99.90;;;;;;5112878;28;20484;-49
2022/01/07 06:53:30;;;;;;;212.88;78.95;;;-0.60;99.90;;;;;;5109071;28;20031;-49
2022/01/07 06:55:57;;;;;;;255.07;92.88;;;-0.50;99.90;;;;;;5110303;28;20454;-50
2022/01/07 06:58:29;;;;;;;183.95;79.50;;;-0.50;99.90;;;;;;5115374;28;20273;-50
2022/01/07 07:00:55;;;;;;;160.30;70.78;;;-0.60;99.90;;;;;;5115096;28;20062;-50
2022/01/07 07:03:21;;;;;;;171.85;72.25;;;-0.50;99.90;;;;;;5115007;28;20036;-50
2022/01/07 07:05:48;;;;;;;208.40;84.03;;;-0.50;99.90;;;;;;5110764;28;20538;-50
2022/01/07 07:08:14;;;;;;;194.15;74.57;;;-0.50;99.90;;;;;;5110514;28;20032;-50
2022/01/07 07:10:40;;;;;;;176.50;78.43;;;-0.50;99.90;;;;;;5114842;28;20458;-50
2022/01/07 07:13:06;;;;;;;192.23;78.07;;;-0.50;99.90;;;;;;5107791;28;20031;-50
2022/01/07 07:15:32;;;;;;;186.52;79.13;;;-0.30;99.90;;;;;;5113983;28;20411;-51
2022/01/07 07:17:58;;;;;;;230.73;91.60;;;0.00;99.90;;;;;;5103358;28;20043;-50
2022/01/07 07:20:24;;;;;;;197.27;84.05;;;0.50;99.90;;;;;;5116489;27;20217;-50
2022/01/07 07:22:53;;;;;;;180.43;74.90;;;1.00;99.90;;;;;;5115070;28;20474;-51
2022/01/07 07:25:22;;;;;;;226.93;88.93;;;1.70;99.90;;;;;;5116210;28;20054;-51
2022/01/07 07:27:52;;;;;;;195.68;80.28;;;2.60;99.90;;;;;;5113174;28;20035;-51
2022/01/07 07:30:19;;;;;;;200.25;84.07;;;3.30;99.90;;;;;;5110883;28;20035;-51
2022/01/07 07:32:47;;;;;;;263.33;108.65;;;4.10;99.90;;;;;;5116509;28;20051;-50
2022/01/07 07:37:46;;;;;;;259.95;107.90;;;5.00;99.90;;;;;;5113639;28;20128;-50
2022/01/07 07:40:13;;;;;;;272.05;113.28;;;5.70;99.90;;;;;;5096251;28;20031;-50
2022/01/07 07:42:39;;;;;;;296.73;125.88;;;6.10;99.90;;;;;;5101354;28;20058;-50
2022/01/07 07:45:09;;;;;;;288.52;124.78;;;6.20;99.90;;;;;;5077887;28;20090;-50
2022/01/07 07:47:35;;;;;;;325.70;136.88;;;6.10;99.90;;;;;;5095576;28;20047;-50
2022/01/07 07:50:03;;;;;;;288.63;119.78;;;5.60;99.90;;;;;;5111450;28;20027;-50
2022/01/07 07:52:30;;;;;;;285.02;125.68;;;5.20;99.90;;;;;;5123763;27;20081;-50
2022/01/07 07:54:56;;;;;;;264.20;125.05;;;4.90;99.90;;;;;;5125238;27;20102;-50
2022/01/07 07:57:21;;;;;;;282.15;125.65;;;5.00;99.90;;;;;;5137928;27;20042;-50
2022/01/07 07:59:49;;;;;;;292.17;134.27;;;4.30;99.90;;;;;;5134397;27;20035;-50
2022/01/07 08:02:15;;;;;;;301.90;130.57;;;4.00;99.90;;;;;;5136802;27;20457;-50
2022/01/07 08:04:41;;;;;;;271.38;125.80;;;3.40;99.90;;;;;;5139272;27;20071;-50
2022/01/07 08:07:07;;;;;;;279.90;124.93;;;3.20;99.90;;;;;;5121231;27;20035;-50
2022/01/07 08:09:38;;;;;;;293.73;132.27;;;3.40;99.90;;;;;;5116893;28;20553;-50
2022/01/07 08:12:17;;;;;;;274.05;124.90;;;4.00;99.90;;;;;;5105482;28;20042;-50
2022/01/07 08:17:28;;;;;;;295.35;126.82;;;4.10;99.90;;;;;;5116226;28;20492;-50
2022/01/07 08:19:53;;;;;;;258.05;118.47;;;4.30;99.90;;;;;;5117222;28;20039;-49
2022/01/07 08:22:31;;;;;;;271.90;121.63;;;4.40;99.90;;;;;;5111813;28;20697;-49
2022/01/07 08:24:57;;;;;;;282.83;123.00;;;4.60;99.90;;;;;;5111620;27;20036;-50
2022/01/07 08:27:26;;;;;;;211.43;99.55;;;4.80;99.90;;;;;;5118392;27;20077;-50
2022/01/07 08:29:52;;;;;;;267.75;124.57;;;5.30;99.90;;;;;;5120572;27;20504;-50
2022/01/07 08:35:04;;;;;;;153.80;70.43;;;7.40;99.90;;;;;;5112212;28;20149;-50
2022/01/07 08:37:30;;;;;;;161.93;65.18;;;8.50;99.00;;;;;;5115422;28;20028;-50
2022/01/07 08:40:00;;;;;;;213.20;99.75;;;9.40;96.10;;;;;;5109976;28;20040;-50
2022/01/07 08:42:26;;;;;;;188.25;84.88;;;9.60;96.70;;;;;;5115040;28;20480;-50
2022/01/07 08:44:54;;;;;;;201.82;94.03;;;9.70;95.30;;;;;;5116992;28;20389;-50
2022/01/07 08:47:24;;;;;;;146.52;59.78;;;10.10;95.30;;;;;;5108252;28;20091;-50
2022/01/07 08:50:12;;;;;;;131.85;61.00;;;10.80;84.10;;;;;;5116318;28;20028;-50
2022/01/07 08:52:55;;;;;;;133.20;53.45;;;10.80;82.10;;;;;;5109502;27;20085;-50
2022/01/07 08:55:54;;;;;;;130.10;49.53;;;11.30;84.50;;;;;;5114069;28;20043;-50
2022/01/07 08:58:24;;;;;;;123.07;51.88;;;11.60;74.60;;;;;;5116722;27;20059;-50
2022/01/07 09:08:21;;;;;;;88.72;37.13;;;12.60;59.70;;;;;;5095113;28;20097;-51
2022/01/07 09:10:48;;;;;;;81.93;33.33;;;12.80;56.70;;;;;;5114637;28;20036;-51
2022/01/07 09:13:20;;;;;;;85.22;35.75;;;12.50;57.40;;;;;;5114544;28;20039;-50
2022/01/07 09:15:46;;;;;;;76.82;34.25;;;12.40;54.40;;;;;;5116015;28;20077;-51
2022/01/07 09:18:14;;;;;;;67.10;31.33;;;11.60;59.30;;;;;;5119201;27;20031;-50
2022/01/07 09:20:42;;;;;;;79.03;34.13;;;12.30;65.10;;;;;;5126076;27;20089;-51
2022/01/07 09:23:10;;;;;;;87.38;39.13;;;12.10;57.40;;;;;;5124787;27;20035;-50
2022/01/07 09:25:36;;;;;;;87.22;34.80;;;12.00;56.40;;;;;;5107517;27;20050;-51
2022/01/07 09:28:05;;;;;;;78.80;34.40;;;12.20;55.80;;;;;;5104762;28;20048;-51
2022/01/07 09:30:31;;;;;;;83.53;35.33;;;12.80;56.00;;;;;;5095758;27;20051;-51
2022/01/07 09:32:57;;;;;;;76.93;33.88;;;12.60;54.00;;;;;;5113818;27;20039;-51
2022/01/07 09:35:25;;;;;;;74.60;29.27;;;12.90;56.90;;;;;;5133711;27;20057;-50
2022/01/07 09:37:52;;;;;;;83.05;31.77;;;13.40;51.40;;;;;;5088021;27;20046;-51
2022/01/07 09:40:20;;;;;;;79.43;30.88;;;13.10;52.40;;;;;;5134256;27;20034;-51
2022/01/07 09:43:00;;;;;;;67.20;29.48;;;13.30;50.20;;;;;;5124979;27;20073;-51
2022/01/07 09:45:28;;;;;;;63.58;25.30;;;13.70;51.70;;;;;;5103789;27;20038;-50
2022/01/07 09:48:03;;;;;;;61.63;25.38;;;14.10;48.70;;;;;;5125550;27;20058;-51
2022/01/07 09:50:31;;;;;;;55.22;26.95;;;13.10;46.70;;;;;;5116079;27;20122;-51
2022/01/07 09:52:57;;;;;;;78.10;28.50;;;13.00;47.30;;;;;;5114993;27;20078;-50
2022/01/07 09:55:24;;;;;;;60.63;28.20;;;13.40;48.30;;;;;;5077799;28;20434;-51
2022/01/07 09:57:50;;;;;;;70.45;28.65;;;13.50;49.00;;;;;;5091225;28;20031;-51
2022/01/07 10:00:16;;;;;;;74.43;33.78;;;13.60;46.30;;;;;;5088082;27;20193;-51
2022/01/07 10:03:07;;;;;;;88.65;34.58;;;12.50;49.80;;;;;;5102982;27;20035;-51
2022/01/07 10:05:41;;;;;;;80.20;35.38;;;12.30;52.60;;;;;;5009072;28;20048;-51
2022/01/07 10:08:25;;;;;;;84.28;36.70;;;12.90;50.70;;;;;;4996588;28;20131;-51
2022/01/07 10:11:14;;;;;;;76.28;30.00;;;12.90;50.70;;;;;;5128226;27;20074;-50
2022/01/07 10:13:41;;;;;;;61.67;25.55;;;13.50;48.70;;;;;;5104331;27;20061;-50
2022/01/07 10:16:22;;;;;;;59.70;25.35;;;13.50;49.80;;;;;;5097139;27;20043;-50
2022/01/07 10:18:48;;;;;;;;;;;14.20;45.60;;;;;;5112166;27;20042;-51
2022/01/07 10:21:16;;;;;;;54.08;21.58;;;14.00;43.60;;;;;;5110286;27;19912;-51
2022/01/07 10:23:44;;;;;;;63.85;26.48;;;14.30;43.00;;;;;;4963827;28;20038;-50
2022/01/07 10:26:16;;;;;;;55.85;24.40;;;14.00;44.20;;;;;;5028424;28;20058;-50
2022/01/07 10:28:45;;;;;;;42.25;20.83;;;14.40;44.80;;;;;;4992401;28;20045;-50
2022/01/07 10:31:20;;;;;;;56.95;24.55;;;14.80;43.10;;;;;;5074835;27;20051;-50
2022/01/07 10:33:49;;;;;;;38.80;18.55;;;15.00;41.10;;;;;;5104713;27;20054;-50
2022/01/07 10:36:21;;;;;;;48.35;21.33;;;15.10;41.10;;;;;;5087205;27;20074;-50
2022/01/07 10:38:54;;;;;;;62.10;24.65;;;15.50;42.00;;;;;;5115928;27;20034;-51
2022/01/07 10:41:26;;;;;;;56.63;22.00;;;15.10;39.80;;;;;;5089563;27;20425;-50
2022/01/07 10:44:02;;;;;;;69.03;25.67;;;14.50;42.60;;;;;;4949598;28;1326115;-50
2022/01/07 10:46:32;;;;;;;60.72;26.17;;;14.50;42.00;;;;;;5048410;28;20136;-50
2022/01/07 10:49:03;;;;;;;53.47;24.60;;;14.70;42.00;;;;;;5075598;28;20041;-50
2022/01/07 10:51:32;;;;;;;51.50;21.48;;;14.70;42.20;;;;;;5061621;28;20508;-50
2022/01/07 10:54:05;;;;;;;52.88;21.60;;;14.70;42.40;;;;;;5068138;28;20044;-51
2022/01/07 10:56:43;;;;;;;52.75;22.85;;;13.80;42.80;;;;;;5094892;27;20037;-50
2022/01/07 10:59:15;;;;;;;70.97;25.17;;;14.30;42.70;;;;;;5125382;27;20395;-50
2022/01/07 11:01:57;;;;;;;61.35;24.77;;;14.40;42.80;;;;;;5102430;27;20048;-50
2022/01/07 11:04:26;;;;;;;66.25;24.95;;;14.70;41.90;;;;;;5067166;27;20036;-51
2022/01/07 11:06:56;;;;;;;54.97;23.38;;;14.60;42.70;;;;;;5098789;27;20048;-51
2022/01/07 11:09:22;;;;;;;60.33;24.48;;;14.80;43.20;;;;;;5108667;27;20047;-51
2022/01/07 11:11:48;;;;;;;63.20;24.92;;;15.10;42.10;;;;;;5041336;28;20046;-50
2022/01/07 11:14:25;;;;;;;54.65;24.23;;;14.90;42.90;;;;;;5074662;28;20059;-51
2022/01/07 11:16:57;;;;;;;59.22;23.70;;;15.00;41.80;;;;;;5097083;28;20056;-50
2022/01/07 11:19:32;;;;;;;55.75;25.80;;;15.00;42.90;;;;;;5111988;28;20433;-50
2022/01/07 11:22:00;;;;;;;63.00;24.27;;;15.00;41.10;;;;;;5113747;28;20066;-50
2022/01/07 11:24:34;;;;;;;45.38;24.13;;;14.30;41.00;;;;;;5115031;28;20097;-50
2022/01/07 11:27:09;;;;;;;62.17;24.17;;;14.90;40.60;;;;;;5113983;28;20043;-50
2022/01/07 11:29:48;;;;;;;56.10;23.85;;;14.80;40.80;;;;;;5112764;28;20405;-50
2022/01/07 11:32:26;;;;;;;65.45;23.65;;;14.90;40.00;;;;;;5114427;28;20036;-50
2022/01/07 11:34:53;;;;;;;62.25;21.67;;;14.30;41.20;;;;;;5110220;28;20032;-50
2022/01/07 11:37:48;;;;;;;56.13;22.40;;;14.90;40.60;;;;;;5107869;28;20038;-50
2022/01/07 11:40:46;;;;;;;47.35;21.25;;;14.50;41.30;;;;;;5107289;28;20043;-50
2022/01/07 11:43:21;;;;;;;67.72;24.65;;;14.70;40.00;;;;;;5110105;28;20031;-50
2022/01/07 11:45:47;;;;;;;48.75;21.95;;;15.00;41.90;;;;;;5112467;28;20161;-50
2022/01/07 11:48:20;;;;;;;38.80;16.27;;;16.20;40.40;;;;;;5115058;28;20039;-50
2022/01/07 11:50:47;;;;;;;39.90;16.80;;;16.40;38.50;;;;;;5104993;28;20036;-51
2022/01/07 11:53:17;;;;;;;41.37;17.10;;;16.70;38.30;;;;;;5103985;28;20562;-50
2022/01/07 11:55:43;;;;;;;43.88;18.30;;;15.70;36.10;;;;;;5106155;28;20330;-50
2022/01/07 11:58:11;;;;;;;41.50;17.98;;;15.00;37.60;;;;;;5106196;28;20036;-51
2022/01/07 12:00:58;;;;;;;44.35;19.75;;;14.70;40.20;;;;;;5106880;28;20053;-50
2022/01/07 12:03:32;;;;;;;37.80;18.27;;;14.50;38.30;;;;;;5085946;28;20621;-50
2022/01/07 12:05:59;;;;;;;37.20;18.15;;;15.60;39.10;;;;;;5110659;28;20381;-50
2022/01/07 12:09:16;;;;;;;34.13;16.05;;;15.50;37.20;;;;;;5112793;28;20067;-50
2022/01/07 12:12:13;;;;;;;44.25;17.73;;;15.70;38.30;;;;;;5113028;28;20121;-50
2022/01/07 12:14:55;;;;;;;35.88;15.57;;;15.70;37.50;;;;;;5112847;28;20042;-50
2022/01/07 12:17:25;;;;;;;54.60;19.95;;;15.50;37.40;;;;;;5107204;28;20040;-50
2022/01/07 12:19:52;;;;;;;69.38;24.40;;;15.90;38.80;;;;;;5102540;28;20039;-50
2022/01/07 12:22:22;;;;;;;47.70;24.98;;;15.60;39.40;;;;;;5114309;28;20044;-50
2022/01/07 12:24:56;;;;;;;50.47;24.42;;;14.90;37.70;;;;;;5112266;28;20031;-50
2022/01/07 12:27:24;;;;;;;75.07;30.63;;;14.90;39.50;;;;;;5107491;28;20044;-50
2022/01/07 12:29:59;;;;;;;100.38;46.75;;;15.00;41.60;;;;;;5094574;28;20549;-50
2022/01/07 12:32:36;;;;;;;82.50;43.42;;;14.70;43.20;;;;;;5114804;28;20035;-50
2022/01/07 12:35:08;;;;;;;83.03;41.83;;;13.60;45.80;;;;;;5108252;28;20051;-50
2022/01/07 12:37:35;;;;;;;82.20;43.72;;;13.70;47.20;;;;;;5113265;28;20042;-50
2022/01/07 12:40:05;;;;;;;94.78;43.97;;;12.60;50.00;;;;;;5112999;28;20434;-50
2022/01/07 12:42:38;;;;;;;103.32;44.95;;;12.90;52.20;;;;;;5116718;28;20055;-50
2022/01/07 12:45:22;;;;;;;80.22;40.17;;;12.70;53.60;;;;;;5113719;28;20262;-50
2022/01/07 12:47:58;;;;;;;87.40;43.20;;;12.50;53.80;;;;;;5115883;28;20039;-51